WetterOnline ( https://www.wetteronline.de )

Wetter aktuell Ulm

Aktuelles Wetter: Ulm-Mähringen (592m)

6-stündlich | Neueste Meldungen
Ortszeit Temperatur Wetter
Do, 29.09. 14:00 10.2° C bedeckt
Do, 29.09. 8:00 5.6° C Nebel
Do, 29.09. 2:00 5.6° C bedeckt
Mi, 28.09. 20:00 7.1° C wolkig
Mi, 28.09. 14:00 9.0° C bewölkt
Mi, 28.09. 8:00 7.9° C Sprühregen
Mi, 28.09. 2:00 7.4° C Regen
Di, 27.09. 20:00 7.0° C bedeckt
Ortszeit Temperatur Wetter
Do, 29.09. 16:30 10.3° C bedeckt
Do, 29.09. 16:20 10.3° C bedeckt
Do, 29.09. 16:10 10.3° C bedeckt
Do, 29.09. 16:00 11.0° C bedeckt
Do, 29.09. 15:50 11.0° C bedeckt
Do, 29.09. 15:40 10.6° C bedeckt
Do, 29.09. 15:30 10.8° C wolkig
Do, 29.09. 15:00 10.5° C wolkig
Do, 29.09. 14:30 10.4° C bedeckt
Do, 29.09. 14:00 10.2° C bedeckt
Do, 29.09. 13:30 9.6° C bedeckt
Ortszeit Relative Feuchte Sichtweite
Do, 29.09. 14:00 72% 45 km
Do, 29.09. 8:00 99% 0.9 km
Do, 29.09. 2:00 96% 26 km
Mi, 28.09. 20:00 90% 55 km
Mi, 28.09. 14:00 80% >70 km
Mi, 28.09. 8:00 94% 21 km
Mi, 28.09. 2:00 95% 40 km
Di, 27.09. 20:00 84% >70 km
Ortszeit Relative Feuchte Sichtweite
Do, 29.09. 16:30 78% 65 km
Do, 29.09. 16:20 78% -
Do, 29.09. 16:10 78% -
Do, 29.09. 16:00 67% >70 km
Do, 29.09. 15:50 67% -
Do, 29.09. 15:40 68% -
Do, 29.09. 15:30 71% >70 km
Do, 29.09. 15:00 70% 60 km
Do, 29.09. 14:30 69% 65 km
Do, 29.09. 14:00 72% 45 km
Do, 29.09. 13:30 77% 55 km
Ortszeit Niederschlagsmenge Niederschlagsart
Do, 29.09. 14:00 0.1 l/m2 in 6 Std. Regen
Do, 29.09. 8:00 0.0 l/m2 in 12 Std. -
Do, 29.09. 2:00 0.0 l/m2 in 6 Std. -
Mi, 28.09. 20:00 4 l/m2 in 12 Std. -
Mi, 28.09. 14:00 4 l/m2 in 6 Std. Regen
Mi, 28.09. 8:00 4 l/m2 in 12 Std. Regen
Mi, 28.09. 2:00 3 l/m2 in 6 Std. Regen
Di, 27.09. 20:00 4 l/m2 in 12 Std. Regen
Ortszeit Niederschlagsmenge Niederschlagsart
Do, 29.09. 16:30 0.0 l/m2 in 1 Std. -
Do, 29.09. 16:20 keine Meldung -
Do, 29.09. 16:10 keine Meldung -
Do, 29.09. 16:00 0.0 l/m2 in 1 Std. -
Do, 29.09. 15:50 keine Meldung -
Do, 29.09. 15:40 keine Meldung -
Do, 29.09. 15:30 0.0 l/m2 in 1 Std. -
Do, 29.09. 15:00 0.0 l/m2 in 1 Std. -
Do, 29.09. 14:30 0.0 l/m2 in 1 Std. -
Do, 29.09. 14:00 <0.05 l/m2 in 1 Std. Regen
Do, 29.09. 13:30 <0.05 l/m2 in 1 Std. Schneeregen
Ortszeit Stärke Spitze Richtung
km/h Bft. km/h Grad Sektor
Do, 29.09. 14:00 6 1 13 120° SO
Do, 29.09. 8:00 0 0 7 - -
Do, 29.09. 2:00 7 2 11 210° SW
Mi, 28.09. 20:00 9 2 24 250° W
Mi, 28.09. 14:00 9 2 33 250° W
Mi, 28.09. 8:00 14 3 40 220° SW
Mi, 28.09. 2:00 13 3 30 220° SW
Di, 27.09. 20:00 14 3 54 240° SW
Ortszeit Stärke Spitze Richtung
km/h Bft. km/h Grad Sektor
Do, 29.09. 16:30 7 2 14 110° O
Do, 29.09. 16:20 7 2 - 110° O
Do, 29.09. 16:10 7 2 - 120° SO
Do, 29.09. 16:00 2 1 11 220° SW
Do, 29.09. 15:50 2 1 - 220° SW
Do, 29.09. 15:40 6 1 - 170° S
Do, 29.09. 15:30 6 1 11 200° S
Do, 29.09. 15:00 7 2 11 150° SO
Do, 29.09. 14:30 4 1 11 170° S
Do, 29.09. 14:00 6 1 11 120° SO
Do, 29.09. 13:30 7 2 11 160° S
Ortszeit Untergrenze Bedeckung Gattung
total tief tief mittel hoch
Do, 29.09. 14:00 570 m 8/8 8/8 - - -
Do, 29.09. 8:00 30 m 8/8 8/8 - - -
Do, 29.09. 2:00 2400 m 8/8 8/8 - - -
Mi, 28.09. 20:00 1800 m 8/8 2/8 - - -
Mi, 28.09. 14:00 540 m 8/8 7/8 - - -
Mi, 28.09. 8:00 270 m 8/8 8/8 - - -
Mi, 28.09. 2:00 240 m 8/8 8/8 - - -
Di, 27.09. 20:00 990 m 8/8 8/8 - - -
Ortszeit Bedeckungsgrad in Achtel und Wolkenuntergrenze
Do, 29.09. 16:30 8(1500m)
Do, 29.09. 16:20 8(1500m)
Do, 29.09. 16:10 8
Do, 29.09. 16:00 1(780m) 8(1800m) 8(3000m)
Do, 29.09. 15:50 1(780m) 8(1800m) 8(3000m)
Do, 29.09. 15:40 8
Do, 29.09. 15:30 3(660m) 8(3000m)
Do, 29.09. 15:00 2(660m) 8(3300m) 8(4500m)
Do, 29.09. 14:30 3(840m) 8(2700m) 8(4800m)
Do, 29.09. 14:00 3(570m) 8(1800m) 8(2400m)
Do, 29.09. 13:30 4(450m) 8(2400m) 8(3300m)
Ortszeit Luftdruck NN (hPa) Tendenz (hPa in 3 Std.)
Do, 29.09. 14:00 1003 + 0,3
Do, 29.09. 8:00 1003 + 0,2
Do, 29.09. 2:00 1003 - 0,3
Mi, 28.09. 20:00 1001 + 0,4
Mi, 28.09. 14:00 1000 + 0,7
Mi, 28.09. 8:00 997 - 1,5
Mi, 28.09. 2:00 1002 - 1,9
Di, 27.09. 20:00 1004 + 0,5
Ortszeit Luftdruck NN (hPa) Tendenz (hPa in 3 Std.)
Do, 29.09. 16:30 1003 + 0,2
Do, 29.09. 16:20 1003 keine Meldung
Do, 29.09. 16:10 1003 keine Meldung
Do, 29.09. 16:00 1003 + 0,2
Do, 29.09. 15:50 1003 keine Meldung
Do, 29.09. 15:40 1003 keine Meldung
Do, 29.09. 15:30 1003 + 0,2
Do, 29.09. 15:00 1003 + 0,3
Do, 29.09. 14:30 1003 + 0,3
Do, 29.09. 14:00 1003 + 0,3
Do, 29.09. 13:30 1003 + 1,0
Ortszeit Schneehöhe (cm)
Do, 29.09. 14:00 0
Do, 29.09. 8:00 0
Do, 29.09. 2:00 0
Mi, 28.09. 20:00 0
Mi, 28.09. 14:00 0
Mi, 28.09. 8:00 0
Mi, 28.09. 2:00 0
Di, 27.09. 20:00 0
Ortszeit Schneehöhe (cm)
Do, 29.09. 16:30 0
Do, 29.09. 16:20 0
Do, 29.09. 16:10 0
Do, 29.09. 16:00 0
Do, 29.09. 15:50 0
Do, 29.09. 15:40 0
Do, 29.09. 15:30 0
Do, 29.09. 15:00 0
Do, 29.09. 14:30 0
Do, 29.09. 14:00 0
Do, 29.09. 13:30 0
Link zu dieser Seite / Seite empfehlen

Das Wetter in ...